VXP1072 KILM-KROC
Flight info
| Callsign | VXP1072 |
|---|---|
| Flight time | 1h 29m |
| Altitude | 33000 |
| Route | WALLO YEASO BBDOL/N0463F340 STPBY/N0463F330 AML Q227 STUBN GIBBE |
| Aircraft | B738/M-SDE2E3FGHIRWXY/LB1 |
Departure
| Time | 2026-05-05 02:26 |
|---|---|
| Airport | Wilmington International Airport (KILM) |
Arrival
| Time | 2026-05-05 03:55 |
|---|---|
| Airport | Frederick Douglass Greater Rochester International Airport (KROC) |
| Time | Latitude | Longitude | Altitude | Speed | Heading |
|---|---|---|---|---|---|
| 2026-05-05 02:04 | 34.26715 | -77.90937 | 40 ft | 0 kts | 183° |
| 2026-05-05 02:17 | 34.26719 | -77.90936 | 40 ft | 3 kts | 187° |
| 2026-05-05 02:17 | 34.26730 | -77.90932 | 37 ft | 4 kts | 235° |
| 2026-05-05 02:17 | 34.26734 | -77.90908 | 36 ft | 2 kts | 259° |
| 2026-05-05 02:18 | 34.26734 | -77.90888 | 36 ft | 4 kts | 275° |
| 2026-05-05 02:18 | 34.26732 | -77.90856 | 36 ft | 4 kts | 272° |
| 2026-05-05 02:18 | 34.26731 | -77.90824 | 39 ft | 4 kts | 265° |
| 2026-05-05 02:18 | 34.26739 | -77.90798 | 38 ft | 4 kts | 210° |
| 2026-05-05 02:19 | 34.26759 | -77.90791 | 36 ft | 0 kts | 182° |
| 2026-05-05 02:21 | 34.26727 | -77.90784 | 38 ft | 6 kts | 166° |
| 2026-05-05 02:21 | 34.26674 | -77.90766 | 40 ft | 9 kts | 163° |
| 2026-05-05 02:21 | 34.26654 | -77.90711 | 40 ft | 10 kts | 58° |
| 2026-05-05 02:22 | 34.26709 | -77.90633 | 40 ft | 13 kts | 47° |
| 2026-05-05 02:22 | 34.26771 | -77.90554 | 40 ft | 13 kts | 36° |
| 2026-05-05 02:22 | 34.26877 | -77.90558 | 40 ft | 18 kts | 340° |
| 2026-05-05 02:22 | 34.26992 | -77.90611 | 40 ft | 17 kts | 340° |
| 2026-05-05 02:23 | 34.27100 | -77.90672 | 40 ft | 18 kts | 327° |
| 2026-05-05 02:23 | 34.27211 | -77.90754 | 40 ft | 20 kts | 332° |
| 2026-05-05 02:23 | 34.27344 | -77.90840 | 40 ft | 23 kts | 330° |
| 2026-05-05 02:23 | 34.27497 | -77.90922 | 40 ft | 25 kts | 348° |
| 2026-05-05 02:24 | 34.27677 | -77.90964 | 40 ft | 27 kts | 349° |
| 2026-05-05 02:24 | 34.27855 | -77.91004 | 40 ft | 26 kts | 349° |
| 2026-05-05 02:24 | 34.28026 | -77.91044 | 40 ft | 24 kts | 349° |
| 2026-05-05 02:24 | 34.28181 | -77.91087 | 40 ft | 23 kts | 340° |
| 2026-05-05 02:25 | 34.28296 | -77.91031 | 42 ft | 22 kts | 84° |
| 2026-05-05 02:25 | 34.28177 | -77.90940 | 43 ft | 37 kts | 159° |
| 2026-05-05 02:25 | 34.27671 | -77.90709 | 39 ft | 116 kts | 159° |
| 2026-05-05 02:25 | 34.26704 | -77.90273 | 164 ft | 170 kts | 160° |
| 2026-05-05 02:26 | 34.25571 | -77.89759 | 994 ft | 177 kts | 161° |
| 2026-05-05 02:26 | 34.24423 | -77.89204 | 1951 ft | 180 kts | 161° |
| 2026-05-05 02:26 | 34.23282 | -77.88600 | 2870 ft | 179 kts | 162° |
| 2026-05-05 02:26 | 34.22053 | -77.88184 | 3486 ft | 190 kts | 179° |
| 2026-05-05 02:27 | 34.20681 | -77.88513 | 3601 ft | 216 kts | 210° |
| 2026-05-05 02:27 | 34.19531 | -77.89746 | 3950 ft | 232 kts | 236° |
| 2026-05-05 02:27 | 34.19049 | -77.91696 | 4152 ft | 258 kts | 272° |
| 2026-05-05 02:27 | 34.19561 | -77.93748 | 4859 ft | 264 kts | 302° |
| 2026-05-05 02:28 | 34.20869 | -77.95279 | 5725 ft | 264 kts | 333° |
| 2026-05-05 02:28 | 34.22642 | -77.95848 | 6590 ft | 268 kts | 354° |
| 2026-05-05 02:28 | 34.24533 | -77.95931 | 7261 ft | 275 kts | 359° |
| 2026-05-05 02:28 | 34.26448 | -77.95902 | 8074 ft | 276 kts | 0° |
| 2026-05-05 02:29 | 34.28376 | -77.95859 | 8856 ft | 279 kts | 360° |
| 2026-05-05 02:29 | 34.30335 | -77.95826 | 9580 ft | 282 kts | 359° |
| 2026-05-05 02:29 | 34.32313 | -77.95805 | 9949 ft | 285 kts | 359° |
| 2026-05-05 02:29 | 34.34303 | -77.95796 | 9992 ft | 287 kts | 359° |
| 2026-05-05 02:30 | 34.36313 | -77.95796 | 10108 ft | 295 kts | 359° |
| 2026-05-05 02:30 | 34.38457 | -77.95804 | 10282 ft | 319 kts | 359° |
| 2026-05-05 02:30 | 34.40720 | -77.95816 | 10458 ft | 340 kts | 358° |
| 2026-05-05 02:30 | 34.43169 | -77.95832 | 10599 ft | 361 kts | 358° |
| 2026-05-05 02:31 | 34.45741 | -77.95852 | 10882 ft | 376 kts | 358° |
| 2026-05-05 02:31 | 34.48379 | -77.95872 | 11437 ft | 381 kts | 358° |
| 2026-05-05 02:31 | 34.51037 | -77.95893 | 12113 ft | 383 kts | 358° |
| 2026-05-05 02:31 | 34.53709 | -77.95914 | 12767 ft | 385 kts | 358° |
| 2026-05-05 02:32 | 34.56401 | -77.95936 | 13383 ft | 388 kts | 358° |
| 2026-05-05 02:32 | 34.59127 | -77.95959 | 13988 ft | 392 kts | 358° |
| 2026-05-05 02:32 | 34.61864 | -77.95982 | 14527 ft | 395 kts | 358° |
| 2026-05-05 02:32 | 34.64595 | -77.96005 | 15049 ft | 398 kts | 358° |
| 2026-05-05 02:33 | 34.67416 | -77.96029 | 15582 ft | 402 kts | 357° |
| 2026-05-05 02:33 | 34.70224 | -77.96053 | 16088 ft | 406 kts | 357° |
| 2026-05-05 02:33 | 34.73028 | -77.96077 | 16599 ft | 409 kts | 357° |
| 2026-05-05 02:33 | 34.75893 | -77.96101 | 17102 ft | 413 kts | 357° |
| 2026-05-05 02:34 | 34.78780 | -77.96126 | 17589 ft | 417 kts | 357° |
| 2026-05-05 02:34 | 34.81691 | -77.96151 | 18070 ft | 420 kts | 357° |
| 2026-05-05 02:34 | 34.84626 | -77.96170 | 18526 ft | 424 kts | 358° |
| 2026-05-05 02:34 | 34.87590 | -77.95830 | 18953 ft | 431 kts | 7° |
| 2026-05-05 02:35 | 34.90493 | -77.94885 | 19435 ft | 436 kts | 17° |
| 2026-05-05 02:35 | 34.93320 | -77.93489 | 19850 ft | 441 kts | 20° |
| 2026-05-05 02:35 | 34.96165 | -77.92019 | 20257 ft | 444 kts | 20° |
| 2026-05-05 02:35 | 34.99014 | -77.90537 | 20678 ft | 446 kts | 20° |
| 2026-05-05 02:36 | 35.01852 | -77.89071 | 21082 ft | 449 kts | 20° |
| 2026-05-05 02:36 | 35.04733 | -77.87595 | 21493 ft | 451 kts | 19° |
| 2026-05-05 02:36 | 35.07636 | -77.86119 | 21876 ft | 454 kts | 19° |
| 2026-05-05 02:36 | 35.10562 | -77.84638 | 22249 ft | 456 kts | 19° |
| 2026-05-05 02:37 | 35.12521 | -77.83648 | 22492 ft | 458 kts | 19° |
| 2026-05-05 02:37 | 35.15469 | -77.82158 | 22862 ft | 460 kts | 19° |
| 2026-05-05 02:37 | 35.18449 | -77.80652 | 23216 ft | 463 kts | 19° |
| 2026-05-05 02:37 | 35.21424 | -77.79146 | 23566 ft | 465 kts | 19° |
| 2026-05-05 02:38 | 35.24430 | -77.77623 | 23878 ft | 468 kts | 19° |
| 2026-05-05 02:38 | 35.27443 | -77.76095 | 24173 ft | 470 kts | 19° |
| 2026-05-05 02:38 | 35.30477 | -77.74554 | 24473 ft | 471 kts | 19° |
| 2026-05-05 02:38 | 35.33509 | -77.73013 | 24762 ft | 473 kts | 19° |
| 2026-05-05 02:39 | 35.36556 | -77.71464 | 25043 ft | 475 kts | 19° |
| 2026-05-05 02:39 | 35.39619 | -77.69904 | 25307 ft | 477 kts | 19° |
| 2026-05-05 02:39 | 35.42697 | -77.68336 | 25586 ft | 479 kts | 19° |
| 2026-05-05 02:39 | 35.45744 | -77.66782 | 25842 ft | 481 kts | 19° |
| 2026-05-05 02:40 | 35.48840 | -77.65203 | 26092 ft | 483 kts | 19° |
| 2026-05-05 02:40 | 35.51958 | -77.63666 | 26354 ft | 482 kts | 15° |
| 2026-05-05 02:40 | 35.55192 | -77.62651 | 26684 ft | 476 kts | 5° |
| 2026-05-05 02:40 | 35.58455 | -77.62241 | 27115 ft | 468 kts | 357° |
| 2026-05-05 02:41 | 35.61686 | -77.62418 | 27559 ft | 462 kts | 351° |
| 2026-05-05 02:41 | 35.64878 | -77.62789 | 27937 ft | 461 kts | 350° |
| 2026-05-05 02:41 | 35.68077 | -77.63175 | 28297 ft | 461 kts | 350° |
| 2026-05-05 02:41 | 35.71269 | -77.63555 | 28705 ft | 459 kts | 350° |
| 2026-05-05 02:42 | 35.74445 | -77.63920 | 29115 ft | 457 kts | 350° |
| 2026-05-05 02:42 | 35.77582 | -77.64270 | 29517 ft | 456 kts | 350° |
| 2026-05-05 02:42 | 35.80743 | -77.64616 | 29889 ft | 455 kts | 350° |
| 2026-05-05 02:42 | 35.83897 | -77.64957 | 30244 ft | 454 kts | 350° |
| 2026-05-05 02:43 | 35.87043 | -77.65294 | 30580 ft | 453 kts | 350° |
| 2026-05-05 02:43 | 35.90182 | -77.65631 | 30880 ft | 453 kts | 350° |
| 2026-05-05 02:43 | 35.93328 | -77.65969 | 31152 ft | 453 kts | 350° |
| 2026-05-05 02:43 | 35.96467 | -77.66306 | 31431 ft | 452 kts | 349° |
| 2026-05-05 02:44 | 35.99597 | -77.66643 | 31719 ft | 452 kts | 349° |
| 2026-05-05 02:44 | 36.02734 | -77.66981 | 31996 ft | 451 kts | 349° |
| 2026-05-05 02:44 | 36.05859 | -77.67318 | 32265 ft | 451 kts | 349° |
| 2026-05-05 02:44 | 36.08956 | -77.67652 | 32536 ft | 451 kts | 349° |
| 2026-05-05 02:45 | 36.12115 | -77.67994 | 32823 ft | 450 kts | 349° |
| 2026-05-05 02:45 | 36.15196 | -77.68327 | 33052 ft | 451 kts | 349° |
| 2026-05-05 02:45 | 36.18337 | -77.68669 | 33033 ft | 455 kts | 349° |
| 2026-05-05 02:46 | 36.24641 | -77.69353 | 33040 ft | 453 kts | 349° |
| 2026-05-05 02:46 | 36.30870 | -77.70024 | 33046 ft | 447 kts | 349° |
| 2026-05-05 02:47 | 36.37089 | -77.70701 | 33058 ft | 447 kts | 349° |
| 2026-05-05 02:47 | 36.43265 | -77.71375 | 33046 ft | 448 kts | 349° |
| 2026-05-05 02:48 | 36.49478 | -77.72054 | 33038 ft | 449 kts | 349° |
| 2026-05-05 02:48 | 36.55720 | -77.72737 | 33028 ft | 451 kts | 349° |
| 2026-05-05 02:49 | 36.61985 | -77.73423 | 33048 ft | 452 kts | 349° |
| 2026-05-05 02:49 | 36.68271 | -77.74111 | 33034 ft | 453 kts | 349° |
| 2026-05-05 02:50 | 36.74553 | -77.74800 | 33026 ft | 453 kts | 349° |
| 2026-05-05 02:50 | 36.80844 | -77.75491 | 33025 ft | 453 kts | 349° |
| 2026-05-05 02:51 | 36.87097 | -77.76180 | 33037 ft | 452 kts | 349° |
| 2026-05-05 02:51 | 36.93359 | -77.76870 | 33018 ft | 451 kts | 349° |
| 2026-05-05 02:52 | 36.99570 | -77.77556 | 33011 ft | 450 kts | 349° |
| 2026-05-05 02:52 | 37.05804 | -77.78247 | 32995 ft | 449 kts | 349° |
| 2026-05-05 02:53 | 37.12025 | -77.78934 | 33005 ft | 449 kts | 350° |
| 2026-05-05 02:53 | 37.18255 | -77.79627 | 33008 ft | 448 kts | 350° |
| 2026-05-05 02:54 | 37.24463 | -77.80319 | 32997 ft | 448 kts | 350° |
| 2026-05-05 02:54 | 37.30675 | -77.81011 | 32996 ft | 447 kts | 350° |
| 2026-05-05 02:55 | 37.36839 | -77.81699 | 32988 ft | 447 kts | 350° |
| 2026-05-05 02:55 | 37.43037 | -77.82392 | 32981 ft | 447 kts | 350° |
| 2026-05-05 02:56 | 37.49234 | -77.83086 | 32977 ft | 446 kts | 350° |
| 2026-05-05 02:56 | 37.55425 | -77.83781 | 32978 ft | 446 kts | 350° |
| 2026-05-05 02:57 | 37.61624 | -77.84499 | 32965 ft | 446 kts | 347° |
| 2026-05-05 02:57 | 37.67461 | -77.86598 | 32983 ft | 436 kts | 333° |
| 2026-05-05 02:58 | 37.73032 | -77.89658 | 32960 ft | 437 kts | 332° |
| 2026-05-05 02:58 | 37.78633 | -77.92693 | 32955 ft | 438 kts | 333° |
| 2026-05-05 02:59 | 37.84248 | -77.95687 | 32949 ft | 438 kts | 333° |
| 2026-05-05 02:59 | 37.90039 | -77.98098 | 32959 ft | 449 kts | 351° |
| 2026-05-05 02:59 | 37.93191 | -77.98044 | 32956 ft | 458 kts | 3° |
| 2026-05-05 03:00 | 37.96308 | -77.97045 | 32969 ft | 468 kts | 16° |
| 2026-05-05 03:00 | 38.02361 | -77.93914 | 32994 ft | 470 kts | 18° |
| 2026-05-05 03:01 | 38.08405 | -77.90706 | 32992 ft | 471 kts | 18° |
| 2026-05-05 03:01 | 38.14474 | -77.87556 | 32965 ft | 471 kts | 17° |
| 2026-05-05 03:02 | 38.20566 | -77.84435 | 32956 ft | 471 kts | 17° |
| 2026-05-05 03:02 | 38.26608 | -77.81345 | 32974 ft | 471 kts | 18° |
| 2026-05-05 03:03 | 38.32689 | -77.78226 | 32957 ft | 471 kts | 18° |
| 2026-05-05 03:03 | 38.38758 | -77.75107 | 32950 ft | 470 kts | 18° |
| 2026-05-05 03:04 | 38.44823 | -77.71983 | 32948 ft | 469 kts | 18° |
| 2026-05-05 03:04 | 38.50873 | -77.68861 | 32961 ft | 469 kts | 18° |
| 2026-05-05 03:05 | 38.56913 | -77.65738 | 32954 ft | 467 kts | 18° |
| 2026-05-05 03:05 | 38.62941 | -77.62616 | 32951 ft | 466 kts | 18° |
| 2026-05-05 03:06 | 38.68911 | -77.59519 | 32946 ft | 465 kts | 18° |
| 2026-05-05 03:06 | 38.74911 | -77.56400 | 32959 ft | 465 kts | 19° |
| 2026-05-05 03:07 | 38.80914 | -77.53274 | 32949 ft | 464 kts | 19° |
| 2026-05-05 03:07 | 38.86887 | -77.50158 | 32937 ft | 463 kts | 19° |
| 2026-05-05 03:08 | 38.92914 | -77.47279 | 32933 ft | 460 kts | 11° |
| 2026-05-05 03:08 | 38.99164 | -77.46439 | 32946 ft | 454 kts | 358° |
| 2026-05-05 03:09 | 39.05493 | -77.46418 | 32944 ft | 454 kts | 357° |
| 2026-05-05 03:09 | 39.11828 | -77.46378 | 32945 ft | 455 kts | 358° |
| 2026-05-05 03:10 | 39.18126 | -77.46289 | 32949 ft | 455 kts | 358° |
| 2026-05-05 03:10 | 39.24507 | -77.46180 | 32932 ft | 456 kts | 358° |
| 2026-05-05 03:11 | 39.30831 | -77.46070 | 32927 ft | 456 kts | 358° |
| 2026-05-05 03:11 | 39.37192 | -77.45962 | 32938 ft | 457 kts | 359° |
| 2026-05-05 03:12 | 39.43541 | -77.45854 | 32930 ft | 457 kts | 359° |
| 2026-05-05 03:12 | 39.49903 | -77.45746 | 32935 ft | 456 kts | 359° |
| 2026-05-05 03:13 | 39.56260 | -77.45637 | 32928 ft | 456 kts | 359° |
| 2026-05-05 03:13 | 39.62557 | -77.45530 | 32931 ft | 455 kts | 358° |
| 2026-05-05 03:14 | 39.68890 | -77.45425 | 32906 ft | 455 kts | 358° |
| 2026-05-05 03:14 | 39.75224 | -77.45325 | 32902 ft | 455 kts | 358° |
| 2026-05-05 03:15 | 39.81558 | -77.45225 | 32909 ft | 454 kts | 358° |
| 2026-05-05 03:15 | 39.87881 | -77.45124 | 32900 ft | 454 kts | 358° |
| 2026-05-05 03:16 | 39.94164 | -77.45023 | 32891 ft | 454 kts | 358° |
| 2026-05-05 03:16 | 40.00487 | -77.44909 | 32891 ft | 453 kts | 358° |
| 2026-05-05 03:17 | 40.06794 | -77.44781 | 32876 ft | 453 kts | 358° |
| 2026-05-05 03:17 | 40.13108 | -77.44655 | 32877 ft | 453 kts | 358° |
| 2026-05-05 03:18 | 40.19405 | -77.44536 | 32879 ft | 453 kts | 358° |
| 2026-05-05 03:18 | 40.25711 | -77.44430 | 32888 ft | 453 kts | 358° |
| 2026-05-05 03:19 | 40.35143 | -77.44273 | 32869 ft | 453 kts | 358° |
| 2026-05-05 03:19 | 40.41454 | -77.44165 | 32860 ft | 453 kts | 358° |
| 2026-05-05 03:20 | 40.47758 | -77.44057 | 32873 ft | 453 kts | 358° |
| 2026-05-05 03:20 | 40.54071 | -77.43949 | 32853 ft | 453 kts | 358° |
| 2026-05-05 03:21 | 40.60334 | -77.43841 | 32852 ft | 453 kts | 358° |
| 2026-05-05 03:21 | 40.66644 | -77.43755 | 32868 ft | 452 kts | 358° |
| 2026-05-05 03:22 | 40.71873 | -77.43713 | 32857 ft | 453 kts | 358° |
| 2026-05-05 03:22 | 40.78133 | -77.42522 | 32872 ft | 457 kts | 11° |
| 2026-05-05 03:23 | 40.85339 | -77.40191 | 32861 ft | 458 kts | 10° |
| 2026-05-05 03:23 | 40.90537 | -77.38601 | 32863 ft | 458 kts | 9° |
| 2026-05-05 03:24 | 40.96764 | -77.36743 | 32854 ft | 459 kts | 9° |
| 2026-05-05 03:24 | 41.02965 | -77.34900 | 32846 ft | 459 kts | 9° |
| 2026-05-05 03:25 | 41.09206 | -77.33038 | 32856 ft | 459 kts | 9° |
| 2026-05-05 03:25 | 41.15442 | -77.31170 | 32836 ft | 460 kts | 9° |
| 2026-05-05 03:26 | 41.21690 | -77.29294 | 32830 ft | 460 kts | 9° |
| 2026-05-05 03:26 | 41.27945 | -77.27411 | 32832 ft | 460 kts | 9° |
| 2026-05-05 03:27 | 41.34201 | -77.25530 | 32830 ft | 461 kts | 9° |
| 2026-05-05 03:27 | 41.40454 | -77.23638 | 32827 ft | 461 kts | 9° |
| 2026-05-05 03:28 | 41.46710 | -77.21738 | 32818 ft | 461 kts | 9° |
| 2026-05-05 03:28 | 41.52927 | -77.19855 | 32824 ft | 461 kts | 9° |
| 2026-05-05 03:29 | 41.59192 | -77.17954 | 32817 ft | 461 kts | 9° |
| 2026-05-05 03:29 | 41.65460 | -77.16045 | 32812 ft | 460 kts | 9° |
| 2026-05-05 03:30 | 41.71674 | -77.14139 | 32821 ft | 460 kts | 9° |
| 2026-05-05 03:30 | 41.77922 | -77.12199 | 32808 ft | 460 kts | 9° |
| 2026-05-05 03:31 | 41.84110 | -77.10276 | 32783 ft | 444 kts | 8° |
| 2026-05-05 03:31 | 41.87045 | -77.09369 | 32778 ft | 429 kts | 8° |
| 2026-05-05 03:31 | 41.89906 | -77.08489 | 32803 ft | 415 kts | 8° |
| 2026-05-05 03:32 | 41.92679 | -77.07637 | 32768 ft | 402 kts | 7° |
| 2026-05-05 03:32 | 41.95362 | -77.06814 | 32784 ft | 388 kts | 7° |
| 2026-05-05 03:32 | 41.97959 | -77.06017 | 32765 ft | 376 kts | 7° |
| 2026-05-05 03:32 | 42.00467 | -77.05246 | 32707 ft | 365 kts | 7° |
| 2026-05-05 03:33 | 42.02937 | -77.04490 | 32331 ft | 363 kts | 7° |
| 2026-05-05 03:33 | 42.05372 | -77.03743 | 31890 ft | 364 kts | 7° |
| 2026-05-05 03:33 | 42.07840 | -77.02984 | 31418 ft | 366 kts | 7° |
| 2026-05-05 03:33 | 42.10340 | -77.02357 | 30879 ft | 365 kts | 360° |
| 2026-05-05 03:34 | 42.12913 | -77.02139 | 29975 ft | 377 kts | 356° |
| 2026-05-05 03:34 | 42.15608 | -77.02031 | 28736 ft | 395 kts | 356° |
| 2026-05-05 03:34 | 42.18425 | -77.01938 | 27390 ft | 414 kts | 356° |
| 2026-05-05 03:34 | 42.21370 | -77.01827 | 25991 ft | 433 kts | 357° |
| 2026-05-05 03:35 | 42.24449 | -77.01688 | 24627 ft | 450 kts | 358° |
| 2026-05-05 03:35 | 42.27620 | -77.01523 | 23428 ft | 462 kts | 358° |
| 2026-05-05 03:35 | 42.30847 | -77.01341 | 22404 ft | 465 kts | 358° |
| 2026-05-05 03:35 | 42.34063 | -77.01153 | 21679 ft | 460 kts | 358° |
| 2026-05-05 03:36 | 42.37240 | -77.00968 | 21041 ft | 453 kts | 358° |
| 2026-05-05 03:36 | 42.40344 | -77.00792 | 20349 ft | 449 kts | 358° |
| 2026-05-05 03:36 | 42.43468 | -77.00620 | 19611 ft | 446 kts | 358° |
| 2026-05-05 03:36 | 42.46555 | -77.00450 | 18902 ft | 444 kts | 358° |
| 2026-05-05 03:37 | 42.49627 | -77.00318 | 18250 ft | 439 kts | 354° |
| 2026-05-05 03:37 | 42.52628 | -77.00731 | 17541 ft | 429 kts | 344° |
| 2026-05-05 03:37 | 42.55474 | -77.01794 | 16909 ft | 418 kts | 335° |
| 2026-05-05 03:37 | 42.58085 | -77.03383 | 16291 ft | 408 kts | 329° |
| 2026-05-05 03:38 | 42.60619 | -77.05094 | 15647 ft | 404 kts | 329° |
| 2026-05-05 03:38 | 42.63103 | -77.06755 | 15020 ft | 400 kts | 329° |
| 2026-05-05 03:38 | 42.65597 | -77.08412 | 14394 ft | 396 kts | 329° |
| 2026-05-05 03:38 | 42.68057 | -77.10048 | 13803 ft | 391 kts | 330° |
| 2026-05-05 03:39 | 42.70496 | -77.11657 | 13178 ft | 388 kts | 330° |
| 2026-05-05 03:39 | 42.72906 | -77.13243 | 12681 ft | 381 kts | 330° |
| 2026-05-05 03:39 | 42.75250 | -77.14784 | 12523 ft | 366 kts | 330° |
| 2026-05-05 03:39 | 42.77500 | -77.16263 | 12389 ft | 351 kts | 329° |
| 2026-05-05 03:40 | 42.79682 | -77.17611 | 12279 ft | 341 kts | 337° |
| 2026-05-05 03:40 | 42.81982 | -77.18267 | 12127 ft | 335 kts | 347° |
| 2026-05-05 03:40 | 42.84264 | -77.18652 | 12008 ft | 325 kts | 348° |
| 2026-05-05 03:40 | 42.86473 | -77.18980 | 11919 ft | 314 kts | 348° |
| 2026-05-05 03:41 | 42.88605 | -77.19277 | 11810 ft | 304 kts | 348° |
| 2026-05-05 03:41 | 42.90684 | -77.19553 | 11666 ft | 296 kts | 348° |
| 2026-05-05 03:41 | 42.92683 | -77.19808 | 11504 ft | 290 kts | 348° |
| 2026-05-05 03:41 | 42.94681 | -77.20056 | 11275 ft | 286 kts | 348° |
| 2026-05-05 03:42 | 42.96662 | -77.20298 | 10975 ft | 286 kts | 348° |
| 2026-05-05 03:42 | 42.98647 | -77.20539 | 10670 ft | 285 kts | 348° |
| 2026-05-05 03:42 | 43.00621 | -77.20776 | 10379 ft | 284 kts | 348° |
| 2026-05-05 03:42 | 43.02594 | -77.21013 | 10088 ft | 284 kts | 348° |
| 2026-05-05 03:43 | 43.04549 | -77.21246 | 9832 ft | 282 kts | 348° |
| 2026-05-05 03:43 | 43.06510 | -77.21478 | 9515 ft | 282 kts | 348° |
| 2026-05-05 03:43 | 43.08465 | -77.21709 | 9197 ft | 281 kts | 348° |
| 2026-05-05 03:43 | 43.10389 | -77.21937 | 8904 ft | 280 kts | 348° |
| 2026-05-05 03:44 | 43.12333 | -77.22166 | 8619 ft | 279 kts | 348° |
| 2026-05-05 03:44 | 43.14270 | -77.22387 | 8340 ft | 278 kts | 348° |
| 2026-05-05 03:44 | 43.16198 | -77.22609 | 7987 ft | 279 kts | 348° |
| 2026-05-05 03:44 | 43.18135 | -77.22830 | 7706 ft | 278 kts | 348° |
| 2026-05-05 03:45 | 43.20063 | -77.23044 | 7430 ft | 278 kts | 348° |
| 2026-05-05 03:45 | 43.21993 | -77.23258 | 7126 ft | 278 kts | 348° |
| 2026-05-05 03:45 | 43.23917 | -77.23472 | 6844 ft | 277 kts | 348° |
| 2026-05-05 03:45 | 43.25845 | -77.23686 | 6520 ft | 278 kts | 348° |
| 2026-05-05 03:46 | 43.27783 | -77.23905 | 6253 ft | 277 kts | 348° |
| 2026-05-05 03:46 | 43.29664 | -77.24110 | 6154 ft | 269 kts | 348° |
| 2026-05-05 03:46 | 43.31462 | -77.24459 | 6105 ft | 250 kts | 332° |
| 2026-05-05 03:46 | 43.32807 | -77.25702 | 6099 ft | 223 kts | 300° |
| 2026-05-05 03:47 | 43.33588 | -77.27492 | 6051 ft | 225 kts | 290° |
| 2026-05-05 03:47 | 43.34222 | -77.29559 | 5818 ft | 237 kts | 275° |
| 2026-05-05 03:47 | 43.34067 | -77.31752 | 5581 ft | 230 kts | 251° |
| 2026-05-05 03:47 | 43.33635 | -77.33876 | 5331 ft | 231 kts | 253° |
| 2026-05-05 03:48 | 43.33238 | -77.36008 | 5078 ft | 229 kts | 253° |
| 2026-05-05 03:48 | 43.32874 | -77.38102 | 4816 ft | 227 kts | 254° |
| 2026-05-05 03:48 | 43.32529 | -77.40218 | 4573 ft | 226 kts | 255° |
| 2026-05-05 03:48 | 43.32200 | -77.42324 | 4311 ft | 224 kts | 255° |
| 2026-05-05 03:49 | 43.31883 | -77.44406 | 4058 ft | 222 kts | 255° |
| 2026-05-05 03:49 | 43.31571 | -77.46472 | 3811 ft | 220 kts | 255° |
| 2026-05-05 03:49 | 43.31272 | -77.48471 | 3804 ft | 207 kts | 255° |
| 2026-05-05 03:49 | 43.30980 | -77.50350 | 3778 ft | 195 kts | 250° |
| 2026-05-05 03:50 | 43.30235 | -77.51795 | 3761 ft | 188 kts | 217° |
| 2026-05-05 03:50 | 43.29177 | -77.52811 | 3762 ft | 184 kts | 224° |
| 2026-05-05 03:50 | 43.28201 | -77.53941 | 3769 ft | 188 kts | 219° |
| 2026-05-05 03:50 | 43.27102 | -77.54930 | 3763 ft | 192 kts | 216° |
| 2026-05-05 03:51 | 43.25942 | -77.55912 | 3591 ft | 198 kts | 216° |
| 2026-05-05 03:51 | 43.24766 | -77.56901 | 3336 ft | 198 kts | 216° |
| 2026-05-05 03:51 | 43.23597 | -77.57883 | 3081 ft | 196 kts | 216° |
| 2026-05-05 03:51 | 43.22455 | -77.58844 | 2832 ft | 189 kts | 216° |
| 2026-05-05 03:52 | 43.21368 | -77.59761 | 2589 ft | 178 kts | 217° |
| 2026-05-05 03:52 | 43.20367 | -77.60603 | 2367 ft | 159 kts | 217° |
| 2026-05-05 03:52 | 43.19487 | -77.61346 | 2161 ft | 140 kts | 217° |
| 2026-05-05 03:52 | 43.18724 | -77.61990 | 1998 ft | 119 kts | 217° |
| 2026-05-05 03:53 | 43.18042 | -77.62566 | 1864 ft | 116 kts | 216° |
| 2026-05-05 03:53 | 43.17347 | -77.63153 | 1700 ft | 115 kts | 215° |
| 2026-05-05 03:53 | 43.16659 | -77.63738 | 1553 ft | 116 kts | 213° |
| 2026-05-05 03:53 | 43.15954 | -77.64328 | 1385 ft | 124 kts | 213° |
| 2026-05-05 03:54 | 43.15147 | -77.65015 | 1205 ft | 144 kts | 211° |
| 2026-05-05 03:54 | 43.14275 | -77.65741 | 997 ft | 144 kts | 211° |
| 2026-05-05 03:54 | 43.13418 | -77.66476 | 786 ft | 148 kts | 212° |
| 2026-05-05 03:54 | 43.12556 | -77.67208 | 581 ft | 141 kts | 211° |
| 2026-05-05 03:55 | 43.11790 | -77.67846 | 564 ft | 112 kts | 213° |
| 2026-05-05 03:55 | 43.11254 | -77.68295 | 567 ft | 69 kts | 211° |
| 2026-05-05 03:55 | 43.11027 | -77.68470 | 572 ft | 26 kts | 211° |
| 2026-05-05 03:55 | 43.10894 | -77.68469 | 569 ft | 22 kts | 97° |
| 2026-05-05 03:56 | 43.10999 | -77.68333 | 566 ft | 21 kts | 32° |
| 2026-05-05 03:56 | 43.11123 | -77.68230 | 564 ft | 21 kts | 32° |
| 2026-05-05 03:56 | 43.11244 | -77.68128 | 573 ft | 20 kts | 31° |
| 2026-05-05 03:56 | 43.11360 | -77.68031 | 565 ft | 19 kts | 32° |
| 2026-05-05 03:57 | 43.11473 | -77.67935 | 566 ft | 19 kts | 31° |
| 2026-05-05 03:57 | 43.11582 | -77.67844 | 566 ft | 18 kts | 31° |
| 2026-05-05 03:57 | 43.11689 | -77.67754 | 566 ft | 18 kts | 32° |
| 2026-05-05 03:57 | 43.11791 | -77.67668 | 568 ft | 17 kts | 33° |
| 2026-05-05 03:58 | 43.11873 | -77.67557 | 569 ft | 17 kts | 54° |
| 2026-05-05 03:58 | 43.11946 | -77.67419 | 562 ft | 18 kts | 51° |
| 2026-05-05 03:58 | 43.12028 | -77.67298 | 564 ft | 17 kts | 44° |
| 2026-05-05 03:58 | 43.12113 | -77.67186 | 560 ft | 16 kts | 45° |
| 2026-05-05 03:59 | 43.12198 | -77.67091 | 565 ft | 16 kts | 35° |
| 2026-05-05 03:59 | 43.12261 | -77.67085 | 561 ft | 8 kts | 351° |
| 2026-05-05 03:59 | 43.12322 | -77.67092 | 562 ft | 10 kts | 358° |
| 2026-05-05 03:59 | 43.12399 | -77.67097 | 567 ft | 11 kts | 358° |
| 2026-05-05 04:00 | 43.12472 | -77.67093 | 561 ft | 11 kts | 19° |
| 2026-05-05 04:00 | 43.12510 | -77.67018 | 562 ft | 10 kts | 92° |
| 2026-05-05 04:00 | 43.12511 | -77.66924 | 565 ft | 10 kts | 81° |
| 2026-05-05 04:00 | 43.12554 | -77.66861 | 564 ft | 10 kts | 8° |
| 2026-05-05 04:01 | 43.12620 | -77.66864 | 561 ft | 9 kts | 7° |
| 2026-05-05 04:01 | 43.12671 | -77.66817 | 558 ft | 9 kts | 63° |
| 2026-05-05 04:01 | 43.12664 | -77.66745 | 561 ft | 0 kts | 121° |